ΕΜΥ, Εθνική Μετεωρολογική Υπηρεσία - Δελτία Καιρού, Προγνώσεις

ΑΕΡΟΝΑΥΤΙΛΙΑ

GREEK AIRPORTS CODES

LGIO 271520Z 29006KT 290V020 9999 FEW035 31/12 Q1016=

EUROPEAN AIRPORTS CODES

LFPO 271530Z 32011KT 260V350 9999 FEW034 SCT045 21/12 Q1024NOSIG=